createdAt,value
2022-11-16T00:09:38.890Z,9.90
2022-11-16T00:19:40.289Z,11.80
2022-11-16T00:29:39.318Z,10.30
2022-11-16T00:39:39.642Z,10.80
2022-11-16T00:49:39.685Z,13.80
2022-11-16T00:59:40.012Z,12.80
2022-11-16T01:09:40.031Z,12.80
2022-11-16T01:19:40.476Z,11.20
2022-11-16T01:29:40.501Z,13.30
2022-11-16T01:39:44.941Z,14.70
2022-11-16T01:49:40.965Z,17.30
2022-11-16T01:59:41.332Z,15.60
2022-11-16T02:09:41.376Z,18.30
2022-11-16T02:19:41.707Z,19.00
2022-11-16T02:29:41.782Z,21.50
2022-11-16T02:39:42.059Z,21.30
2022-11-16T02:49:42.086Z,18.40
2022-11-16T02:59:42.638Z,22.20
2022-11-16T03:09:42.475Z,22.00
2022-11-16T03:19:42.803Z,16.00
2022-11-16T03:29:42.831Z,18.00
2022-11-16T03:39:44.245Z,14.40
2022-11-16T03:49:43.420Z,19.00
2022-11-16T03:59:43.545Z,21.80
2022-11-16T04:09:43.601Z,25.30
2022-11-16T04:19:43.883Z,32.70
2022-11-16T04:29:43.956Z,30.30
2022-11-16T04:39:44.231Z,24.60
2022-11-16T04:49:44.260Z,21.60
2022-11-16T04:59:44.587Z,18.60
2022-11-16T05:09:44.617Z,21.90
2022-11-16T05:19:45.028Z,24.90
2022-11-16T05:29:45.045Z,28.20
2022-11-16T05:39:45.398Z,20.20
2022-11-16T05:49:45.429Z,22.90
2022-11-16T05:59:46.488Z,26.00
2022-11-16T06:09:59.047Z,20.80
2022-11-16T06:19:46.078Z,22.90
2022-11-16T06:29:47.354Z,25.30
2022-11-16T06:39:46.581Z,26.50
2022-11-16T06:49:47.822Z,23.20
2022-11-16T06:59:47.132Z,21.20
2022-11-16T07:09:48.203Z,25.10
2022-11-16T07:19:47.420Z,24.20
2022-11-16T07:29:47.762Z,21.30
2022-11-16T07:39:47.784Z,23.00
2022-11-16T07:49:48.118Z,29.40
2022-11-16T07:59:48.167Z,19.10
2022-11-16T08:09:48.527Z,21.40
2022-11-16T08:19:48.550Z,31.40
2022-11-16T08:29:48.959Z,31.70
2022-11-16T08:39:48.987Z,24.70
2022-11-16T08:49:49.845Z,30.20
2022-11-16T08:59:49.386Z,25.60
2022-11-16T09:09:49.702Z,28.00
2022-11-16T09:19:49.723Z,28.60
2022-11-16T09:29:49.970Z,32.10
2022-11-16T09:39:50.194Z,47.00
2022-11-16T09:49:50.457Z,31.10
2022-11-16T09:59:50.656Z,31.80
2022-11-16T10:09:50.902Z,25.10
2022-11-16T10:19:51.138Z,18.10
2022-11-16T10:29:51.381Z,12.00
2022-11-16T10:39:51.605Z,6.20
2022-11-16T10:49:51.851Z,10.60
2022-11-16T10:59:52.084Z,17.00
2022-11-16T11:09:52.422Z,15.90
2022-11-16T11:19:52.472Z,14.60
2022-11-16T11:29:53.718Z,7.90
2022-11-16T11:39:52.980Z,7.30
2022-11-16T11:49:53.298Z,6.60
2022-11-16T11:59:53.323Z,1.30
2022-11-16T12:09:53.642Z,3.20
2022-11-16T12:19:53.671Z,8.50
2022-11-16T12:29:54.009Z,3.00
2022-11-16T12:39:54.043Z,3.10
2022-11-16T12:49:54.387Z,7.00
2022-11-16T12:59:54.409Z,4.10
2022-11-16T13:09:54.647Z,4.00
2022-11-16T13:19:54.888Z,3.30
2022-11-16T13:29:55.246Z,2.90
2022-11-16T13:39:55.284Z,2.00
2022-11-16T13:49:55.595Z,3.50
2022-11-16T13:59:57.836Z,3.30
2022-11-16T14:09:55.966Z,6.30
2022-11-16T14:19:55.994Z,4.30
2022-11-16T14:29:56.263Z,5.80
2022-11-16T14:39:56.494Z,5.20
2022-11-16T14:49:58.759Z,4.20
2022-11-16T14:59:56.987Z,10.10
2022-11-16T15:09:57.282Z,10.30
2022-11-16T15:19:57.323Z,6.90
2022-11-16T15:29:57.668Z,8.30
2022-11-16T15:39:57.795Z,6.50
2022-11-16T15:49:57.919Z,5.40
2022-11-16T15:59:57.959Z,8.30
2022-11-16T16:09:58.289Z,7.10
2022-11-16T16:19:58.324Z,8.60
2022-11-16T16:29:58.677Z,10.90
2022-11-16T16:39:58.704Z,10.10
2022-11-16T16:49:58.833Z,6.10
2022-11-16T16:59:59.042Z,3.60
2022-11-16T17:09:59.335Z,2.60
2022-11-16T17:19:59.150Z,12.30
2022-11-16T17:29:59.298Z,12.50
2022-11-16T17:39:59.596Z,20.40
2022-11-16T17:49:59.757Z,7.00
2022-11-16T17:59:59.798Z,12.60
2022-11-16T18:10:00.112Z,7.50
2022-11-16T18:20:00.143Z,5.10
2022-11-16T18:30:00.495Z,5.00
2022-11-16T18:40:00.661Z,7.10
2022-11-16T18:50:02.816Z,3.60
2022-11-16T19:00:00.947Z,5.70
2022-11-16T19:10:01.139Z,5.10
2022-11-16T19:20:01.415Z,4.20
2022-11-16T19:30:02.286Z,3.80
2022-11-16T19:40:01.737Z,2.80
2022-11-16T19:50:01.860Z,2.00
2022-11-16T20:00:02.034Z,3.40
2022-11-16T20:10:02.251Z,2.60
2022-11-16T20:20:02.364Z,1.70
2022-11-16T20:30:07.942Z,3.30
2022-11-16T20:40:03.696Z,6.80
2022-11-16T20:50:04.614Z,64.80
2022-11-16T21:00:02.804Z,28.00
2022-11-16T21:10:03.110Z,7.30
2022-11-16T21:20:26.250Z,2.20
2022-11-16T21:30:04.132Z,3.00
2022-11-16T21:40:06.552Z,2.90
2022-11-16T22:00:04.766Z,2.20
2022-11-16T22:10:04.109Z,1.90
2022-11-16T22:20:04.301Z,1.30
2022-11-16T22:30:04.413Z,1.40
2022-11-16T22:40:04.541Z,2.00
2022-11-16T22:50:05.032Z,0.80
2022-11-16T23:00:05.332Z,2.40
2022-11-16T23:10:05.412Z,1.20
2022-11-16T23:20:05.319Z,0.50
2022-11-16T23:30:11.884Z,1.10
2022-11-16T23:40:06.622Z,1.90
2022-11-16T23:50:08.984Z,1.00
